Centerbrook, Connecticut
Current Conditions -  °F | °C
As of 10:55 PM on Thursday 18 Dec 2014 (Local Time) from KSNC Reporting Station
Overcast Overcast  
Wind Chill: -3°   Ceiling: 2600
Heat Index:   Visibility: 10mi
Dew Point: -2°   Wind: 13mph
Humidity: 75%   Direction: 330°NNW
Pressure: 29.92"   Gusts: 21mph
Location:  41.35°N, 72.42°W
Report Text: KSNC 190355Z AUTO 33011G18KT 10SM OVC026 02/M02 A2992 RMK AO2
Loading
Personal Weather Stations






























Interactive Weather Map New forecast layout! Learn more

10-Day Weather Forecast

Advertisements
Track Severe Weather on mobile